Time;durP1;ratioP1;P1;durP2;ratioP2;P2;SDS_P1;SDS_P2;PMS_P1;PMS_P2;Temp;Humidity;BMP_temperature;BMP_pressure;BME280_temperature;BME280_humidity;BME280_pressure;Samples;Min_cycle;Max_cycle;Signal;HPM_P1;HPM_P2
2022/04/22 00:00:51;;;;;;;22.70;13.68;;;;;;;8.36;61.18;99638.38;5135474;27;20051;-76
2022/04/22 00:03:21;;;;;;;22.38;14.07;;;;;;;8.40;60.98;99634.59;5116634;27;20139;-76
2022/04/22 00:05:49;;;;;;;23.08;13.65;;;;;;;8.45;60.89;99630.69;5121537;27;20039;-76
2022/04/22 00:08:18;;;;;;;22.38;13.73;;;;;;;8.25;61.48;99631.03;5114218;28;20074;-76
2022/04/22 00:13:32;;;;;;;23.80;14.57;;;;;;;8.11;63.30;99626.56;5114485;28;20040;-76
2022/04/22 00:16:03;;;;;;;21.52;13.77;;;;;;;8.07;63.86;99617.06;5118114;27;20043;-74
2022/04/22 00:18:33;;;;;;;24.40;14.68;;;;;;;8.11;64.21;99609.78;5116444;27;20043;-76
2022/04/22 00:21:03;;;;;;;24.77;14.55;;;;;;;8.27;63.37;99613.19;5134909;27;20034;-76
2022/04/22 00:23:31;;;;;;;23.02;14.23;;;;;;;8.41;63.05;99610.59;5134942;27;20070;-76
2022/04/22 00:26:00;;;;;;;22.08;13.95;;;;;;;8.27;63.69;99613.19;5134675;27;20081;-75
2022/04/22 00:28:28;;;;;;;28.30;14.52;;;;;;;8.31;63.67;99614.72;5134963;27;20503;-75
2022/04/22 00:30:57;;;;;;;26.80;14.25;;;;;;;8.20;64.18;99601.22;5134727;27;20171;-75
2022/04/22 00:37:33;;;;;;;27.95;14.15;;;;;;;8.25;64.02;99601.81;5134430;27;20031;-75
2022/04/22 00:40:08;;;;;;;20.02;13.82;;;;;;;8.34;63.88;99603.91;5115735;27;20047;-75
2022/04/22 00:42:36;;;;;;;21.98;14.13;;;;;;;8.14;64.48;99606.91;5134551;27;20039;-75
2022/04/22 00:45:06;;;;;;;26.52;14.75;;;;;;;8.20;64.62;99596.78;5134403;27;20503;-75
2022/04/22 00:47:35;;;;;;;22.45;14.18;;;;;;;8.21;64.91;99587.00;5117418;27;20133;-75
2022/04/22 00:50:04;;;;;;;23.10;13.85;;;;;;;8.10;65.84;99581.47;5113525;28;20542;-81
2022/04/22 00:52:38;;;;;;;23.95;14.60;;;;;;;8.22;65.28;99584.25;5122939;27;20044;-75
2022/04/22 00:55:08;;;;;;;21.55;13.88;;;;;;;8.23;65.66;99580.66;5113501;28;20539;-75
2022/04/22 00:57:37;;;;;;;21.52;13.57;;;;;;;8.02;66.58;99580.16;5113641;28;20036;-75
2022/04/22 01:00:06;;;;;;;23.65;13.32;;;;;;;8.03;66.37;99573.03;5113525;28;20043;-75
2022/04/22 01:02:35;;;;;;;22.30;13.77;;;;;;;8.04;66.02;99564.13;5095390;28;20561;-75
2022/04/22 01:10:51;;;;;;;20.35;13.57;;;;;;;7.83;67.54;99566.28;5088541;28;20066;-75
2022/04/22 01:13:19;;;;;;;21.73;13.43;;;;;;;7.88;67.00;99558.88;5095233;28;20051;-78
2022/04/22 01:15:47;;;;;;;23.98;14.73;;;;;;;7.97;66.76;99563.63;5095375;28;20139;-74
2022/04/22 01:18:16;;;;;;;24.13;14.88;;;;;;;7.92;66.98;99565.72;5113284;28;20042;-75
2022/04/22 01:20:45;;;;;;;22.60;14.45;;;;;;;7.78;67.69;99557.72;5113673;28;20070;-74
2022/04/22 01:23:14;;;;;;;21.77;13.95;;;;;;;7.69;68.35;99548.50;5113616;28;20468;-76
2022/04/22 01:25:42;;;;;;;25.08;13.80;;;;;;;7.94;67.41;99555.84;5113478;28;20054;-75
2022/04/22 01:28:11;;;;;;;22.73;14.25;;;;;;;7.62;68.68;99546.28;5113421;28;20472;-76
2022/04/22 01:30:39;;;;;;;22.75;14.57;;;;;;;7.71;67.80;99545.75;5113544;28;20552;-75
2022/04/22 01:33:07;;;;;;;22.42;13.88;;;;;;;7.58;68.67;99542.97;5095317;28;20097;-76
2022/04/22 01:35:35;;;;;;;22.75;13.43;;;;;;;7.64;68.05;99542.63;5113440;28;20062;-75
2022/04/22 01:38:04;;;;;;;24.42;13.30;;;;;;;7.71;68.04;99538.63;5095070;28;20079;-75
2022/04/22 01:40:34;;;;;;;23.27;14.70;;;;;;;7.63;68.38;99530.28;5113184;28;20047;-75
2022/04/22 01:43:04;;;;;;;23.00;13.65;;;;;;;7.63;68.83;99524.13;5113319;28;20086;-75
2022/04/22 01:45:33;;;;;;;25.38;14.23;;;;;;;7.55;69.21;99524.59;5113496;28;20475;-74
2022/04/22 01:48:01;;;;;;;21.60;14.13;;;;;;;7.74;68.59;99524.34;5113154;28;20046;-74
2022/04/22 01:50:29;;;;;;;23.63;13.57;;;;;;;7.60;68.97;99513.69;5095527;28;20051;-74
2022/04/22 01:52:58;;;;;;;21.73;14.40;;;;;;;7.43;70.11;99506.72;5099286;28;20392;-76
2022/04/22 01:55:27;;;;;;;23.98;14.35;;;;;;;7.18;71.51;99504.66;5098790;28;20078;-75
2022/04/22 01:57:57;;;;;;;22.15;14.38;;;;;;;7.42;70.37;99508.50;5098825;28;20048;-73
2022/04/22 02:00:25;;;;;;;23.42;13.95;;;;;;;7.36;70.55;99495.63;5117176;28;20086;-74
2022/04/22 02:02:53;;;;;;;22.25;13.70;;;;;;;7.50;70.26;99494.78;5117160;28;20484;-75
2022/04/22 02:05:22;;;;;;;21.33;14.00;;;;;;;7.40;70.63;99491.84;5098656;28;20538;-75
2022/04/22 02:07:50;;;;;;;28.48;14.63;;;;;;;7.44;70.72;99496.03;5116702;28;20055;-74
2022/04/22 02:10:19;;;;;;;20.38;12.55;;;;;;;7.46;70.61;99488.81;5116987;28;20036;-74
2022/04/22 02:12:47;;;;;;;21.75;13.38;;;;;;;7.30;71.64;99490.66;5117056;28;20118;-78
2022/04/22 02:15:18;;;;;;;20.58;13.15;;;;;;;7.55;70.97;99492.75;5098411;28;20435;-76
2022/04/22 02:17:46;;;;;;;20.70;13.32;;;;;;;7.59;70.21;99498.69;5116753;28;20078;-76
2022/04/22 02:20:14;;;;;;;20.35;13.25;;;;;;;7.26;72.39;99497.13;5098889;28;20048;-78
2022/04/22 02:22:43;;;;;;;23.95;13.38;;;;;;;7.24;71.98;99483.09;5116595;28;20046;-78
2022/04/22 02:25:11;;;;;;;21.67;13.77;;;;;;;7.50;70.98;99483.31;5098441;28;20044;-79
2022/04/22 02:30:28;;;;;;;21.08;13.45;;;;;;;7.46;71.00;99494.13;5098175;28;20047;-77
2022/04/22 02:32:57;;;;;;;20.35;13.10;;;;;;;7.55;70.84;99486.56;5098351;28;20567;-76
2022/04/22 02:35:25;;;;;;;24.30;14.15;;;;;;;7.40;71.12;99493.63;5116537;28;20055;-75
2022/04/22 02:37:53;;;;;;;21.90;13.48;;;;;;;7.21;72.42;99493.00;5098295;28;20057;-74
2022/04/22 02:45:54;;;;;;;22.02;13.82;;;;;;;7.40;71.65;99475.91;5116256;28;20480;-74
2022/04/22 02:48:23;;;;;;;20.10;13.20;;;;;;;7.54;71.22;99482.22;5115995;28;20043;-75
2022/04/22 02:50:51;;;;;;;20.10;13.13;;;;;;;7.54;71.27;99482.22;5116064;28;20118;-75
2022/04/22 02:53:19;;;;;;;22.02;13.88;;;;;;;7.53;71.61;99477.81;5115996;28;20035;-75
2022/04/22 02:55:51;;;;;;;20.13;13.48;;;;;;;7.36;72.18;99468.25;5116194;28;20097;-75
2022/04/22 02:58:20;;;;;;;20.33;13.32;;;;;;;7.50;71.27;99467.41;5115548;28;20046;-75
2022/04/22 03:00:48;;;;;;;21.30;14.05;;;;;;;7.55;71.18;99468.84;5115992;28;20043;-75
2022/04/22 03:03:18;;;;;;;21.10;13.38;;;;;;;7.45;71.61;99465.91;5115159;28;20047;-75
2022/04/22 03:05:46;;;;;;;20.23;12.57;;;;;;;7.42;72.34;99460.75;5115869;28;20488;-75
2022/04/22 03:08:14;;;;;;;21.60;14.27;;;;;;;7.50;71.89;99446.19;5115301;28;20051;-76
2022/04/22 03:10:43;;;;;;;20.98;13.30;;;;;;;7.51;72.28;99453.19;5115906;28;20078;-75
2022/04/22 03:13:11;;;;;;;23.65;14.07;;;;;;;7.39;72.74;99457.44;5097545;28;20534;-75
2022/04/22 03:15:39;;;;;;;21.85;13.10;;;;;;;7.51;72.37;99453.19;5115721;28;20392;-74
2022/04/22 03:18:07;;;;;;;22.48;13.80;;;;;;;7.41;72.12;99461.69;5097492;28;20048;-75
2022/04/22 03:20:37;;;;;;;19.73;12.98;;;;;;;7.44;72.65;99450.06;5115625;28;20036;-75
2022/04/22 03:23:05;;;;;;;20.05;13.80;;;;;;;7.39;72.66;99455.63;5115663;28;20112;-75
2022/04/22 03:25:34;;;;;;;21.88;13.40;;;;;;;7.22;73.64;99453.13;5097213;28;20134;-75
2022/04/22 03:28:04;;;;;;;23.10;13.63;;;;;;;7.41;73.39;99445.78;5115438;28;20039;-75
2022/04/22 03:30:34;;;;;;;21.75;13.48;;;;;;;7.51;72.65;99435.47;5097156;28;20078;-75
2022/04/22 03:33:03;;;;;;;20.65;13.60;;;;;;;7.53;72.82;99435.38;5115511;28;20050;-74
2022/04/22 03:35:31;;;;;;;22.25;14.68;;;;;;;7.28;74.01;99441.31;5115351;28;20089;-75
2022/04/22 03:38:00;;;;;;;22.77;13.18;;;;;;;7.29;74.07;99443.88;5115489;28;20479;-72
2022/04/22 03:40:29;;;;;;;22.77;14.48;;;;;;;7.32;74.54;99443.69;5096675;28;20086;-73
2022/04/22 03:42:57;;;;;;;21.73;13.85;;;;;;;7.45;73.99;99436.72;5115056;28;20396;-73
2022/04/22 03:45:25;;;;;;;21.48;13.70;;;;;;;7.59;73.39;99438.50;5115115;28;20397;-72
2022/04/22 03:47:58;;;;;;;21.88;13.50;;;;;;;7.46;74.21;99434.91;5114793;28;20051;-73
2022/04/22 03:50:29;;;;;;;23.88;14.07;;;;;;;7.41;74.51;99437.81;5096487;28;20047;-72
2022/04/22 03:52:58;;;;;;;23.08;14.30;;;;;;;7.53;73.93;99424.75;5096580;28;20067;-72
2022/04/22 03:55:28;;;;;;;26.17;15.10;;;;;;;7.47;74.33;99424.19;5114534;28;20043;-73
2022/04/22 03:58:10;;;;;;;23.45;14.70;;;;;;;7.36;75.62;99426.66;5114577;28;20043;-71
2022/04/22 04:00:40;;;;;;;24.27;14.35;;;;;;;7.38;75.80;99432.72;5114490;28;20503;-71
2022/04/22 04:03:09;;;;;;;19.52;14.27;;;;;;;7.45;75.50;99434.06;5096427;28;20525;-72
2022/04/22 04:05:38;;;;;;;25.17;14.65;;;;;;;7.33;76.77;99439.22;5114329;28;20108;-71
2022/04/22 04:08:11;;;;;;;24.42;14.48;;;;;;;7.36;76.44;99428.44;5096331;28;20538;-73
2022/04/22 04:16:14;;;;;;;21.88;13.57;;;;;;;7.70;74.34;99427.25;5114466;28;20063;-73
2022/04/22 04:18:42;;;;;;;20.75;13.77;;;;;;;7.89;73.47;99430.47;5114545;28;20392;-76
2022/04/22 04:24:04;;;;;;;21.02;14.02;;;;;;;7.82;74.02;99444.25;5114530;28;20112;-77
2022/04/22 04:26:36;;;;;;;25.27;13.68;;;;;;;7.84;74.11;99445.00;5114133;28;20036;-76
2022/04/22 04:29:05;;;;;;;21.92;13.48;;;;;;;8.15;71.66;99428.00;5114305;28;20404;-76
2022/04/22 04:31:34;;;;;;;19.77;13.65;;;;;;;8.19;71.55;99418.88;5114131;28;20126;-75
2022/04/22 04:34:02;;;;;;;20.65;14.07;;;;;;;8.14;72.46;99440.41;5114106;28;20066;-77
2022/04/22 04:36:31;;;;;;;22.00;14.35;;;;;;;8.07;72.27;99440.91;5113910;28;20392;-76
2022/04/22 04:38:59;;;;;;;20.40;13.15;;;;;;;8.28;71.23;99434.22;5114457;28;20057;-77
2022/04/22 04:41:28;;;;;;;24.00;13.45;;;;;;;8.21;71.59;99430.28;5113702;28;20131;-75
2022/04/22 04:43:58;;;;;;;21.17;13.65;;;;;;;8.21;71.85;99435.59;5095921;28;20489;-75
2022/04/22 04:46:26;;;;;;;20.30;13.65;;;;;;;8.24;71.66;99443.34;5113972;28;20066;-75
2022/04/22 04:48:56;;;;;;;21.52;13.98;;;;;;;8.36;71.00;99444.41;5113931;28;20050;-75
2022/04/22 04:51:24;;;;;;;21.42;13.85;;;;;;;8.33;71.19;99442.75;5113598;28;20042;-76
2022/04/22 04:53:52;;;;;;;22.08;13.80;;;;;;;8.52;70.46;99447.78;5114108;28;20042;-75
2022/04/22 04:56:20;;;;;;;20.98;13.57;;;;;;;8.23;71.57;99431.03;5113738;28;20122;-76
2022/04/22 04:58:49;;;;;;;19.48;13.18;;;;;;;8.31;71.45;99436.72;5113797;28;20043;-75
2022/04/22 05:01:18;;;;;;;22.70;14.38;;;;;;;8.46;70.28;99438.41;5113997;28;20043;-74
2022/04/22 05:03:47;;;;;;;21.77;13.75;;;;;;;8.50;70.21;99429.28;5095387;28;20082;-74
2022/04/22 05:06:15;;;;;;;20.75;13.95;;;;;;;8.39;70.57;99434.41;5113304;28;20044;-74
2022/04/22 05:08:44;;;;;;;24.63;14.88;;;;;;;8.27;71.22;99433.38;5094935;28;20130;-74
2022/04/22 05:11:12;;;;;;;20.17;13.52;;;;;;;8.43;70.51;99437.75;5113584;28;20096;-74
2022/04/22 05:13:41;;;;;;;21.17;14.15;;;;;;;8.35;70.85;99446.19;5113154;28;20051;-73
2022/04/22 05:16:09;;;;;;;19.67;13.00;;;;;;;8.66;68.59;99449.53;5113489;28;20036;-75
2022/04/22 05:18:40;;;;;;;24.25;13.93;;;;;;;8.45;69.05;99455.28;5113216;28;20046;-77
2022/04/22 05:21:08;;;;;;;18.98;13.75;;;;;;;8.42;69.89;99452.00;5113620;28;20047;-72
2022/04/22 05:23:36;;;;;;;25.15;14.15;;;;;;;8.41;69.07;99452.94;5113350;28;20477;-76
2022/04/22 05:26:05;;;;;;;20.38;13.85;;;;;;;8.51;68.20;99462.88;5098869;28;20051;-76
2022/04/22 05:28:34;;;;;;;22.70;13.60;;;;;;;8.69;67.11;99458.19;5117446;28;20042;-74
2022/04/22 05:33:50;;;;;;;22.38;12.82;;;;;;;8.62;67.79;99475.47;5117639;28;20047;-76
2022/04/22 05:36:19;;;;;;;21.70;14.73;;;;;;;8.73;67.07;99469.47;5099022;28;20551;-72
2022/04/22 05:38:47;;;;;;;21.77;13.50;;;;;;;8.74;67.38;99456.06;5117128;28;20136;-72
2022/04/22 05:41:15;;;;;;;22.98;13.85;;;;;;;8.81;67.38;99453.88;5117528;28;20036;-71
2022/04/22 05:43:44;;;;;;;20.20;13.60;;;;;;;8.80;67.49;99442.38;5117028;28;20561;-74
2022/04/22 05:46:12;;;;;;;22.10;13.65;;;;;;;8.82;67.95;99440.47;5098861;28;20052;-74
2022/04/22 05:48:41;;;;;;;19.08;13.70;;;;;;;8.99;67.38;99438.50;5116716;28;20040;-74
2022/04/22 05:51:10;;;;;;;24.38;14.88;;;;;;;8.91;67.61;99436.34;5117990;28;20067;-74
2022/04/22 05:53:44;;;;;;;19.92;13.23;;;;;;;8.88;67.17;99444.56;5098252;28;20062;-74
2022/04/22 05:56:12;;;;;;;20.98;12.88;;;;;;;8.94;66.52;99437.94;5116686;28;20078;-74
2022/04/22 05:58:41;;;;;;;24.58;15.05;;;;;;;9.00;66.52;99430.44;5116897;28;20054;-74
2022/04/22 06:01:09;;;;;;;23.52;12.88;;;;;;;9.05;66.47;99425.63;5116750;28;20047;-74
2022/04/22 06:03:37;;;;;;;24.13;13.38;;;;;;;8.92;66.35;99410.63;5097951;28;20105;-74
2022/04/22 06:06:05;;;;;;;17.73;11.93;;;;;;;8.89;64.51;99424.97;5116787;28;20046;-73
2022/04/22 06:11:20;;;;;;;20.40;12.80;;;;;;;9.07;64.64;99453.00;5116902;28;20042;-75
2022/04/22 06:13:49;;;;;;;21.17;12.88;;;;;;;9.06;65.49;99445.97;5116610;28;20036;-76
2022/04/22 06:16:19;;;;;;;25.92;13.55;;;;;;;9.23;64.42;99436.00;5098632;28;20047;-73
2022/04/22 06:18:47;;;;;;;23.65;13.50;;;;;;;9.11;64.30;99430.56;5098093;28;20492;-72
2022/04/22 06:21:15;;;;;;;25.73;12.90;;;;;;;9.31;63.03;99436.34;5098223;28;20043;-75
2022/04/22 06:23:45;;;;;;;20.38;12.25;;;;;;;9.17;62.78;99435.47;5098259;28;20091;-73
2022/04/22 06:26:13;;;;;;;22.17;12.40;;;;;;;9.25;63.26;99434.09;5116380;28;20043;-72
2022/04/22 06:28:41;;;;;;;17.20;12.27;;;;;;;9.58;61.65;99423.81;5098080;28;20408;-73
2022/04/22 06:31:10;;;;;;;20.02;12.65;;;;;;;9.49;62.21;99415.59;5098220;28;20134;-72
2022/04/22 06:33:39;;;;;;;21.98;12.18;;;;;;;9.49;61.57;99420.94;5118865;28;20050;-72
2022/04/22 06:36:13;;;;;;;19.85;12.68;;;;;;;9.57;60.89;99426.59;5102680;28;20099;-72
2022/04/22 06:38:45;;;;;;;20.73;12.38;;;;;;;9.67;60.49;99417.84;5098655;28;20096;-72
2022/04/22 06:46:47;;;;;;;18.00;11.88;;;;;;;9.95;59.50;99397.28;5097565;27;20055;-72
2022/04/22 06:49:16;;;;;;;22.52;12.02;;;;;;;10.09;58.52;99407.78;5102673;28;20048;-72
2022/04/22 06:51:44;;;;;;;22.20;12.68;;;;;;;9.97;58.78;99390.88;5097180;28;20515;-73
2022/04/22 06:54:15;;;;;;;24.33;13.18;;;;;;;10.09;58.80;99386.47;5097588;28;20052;-74
2022/04/22 06:56:44;;;;;;;18.02;12.02;;;;;;;10.07;58.66;99382.22;5115425;28;20157;-73
2022/04/22 06:59:12;;;;;;;22.45;12.25;;;;;;;10.07;58.65;99393.72;5097849;28;20044;-73
2022/04/22 07:01:41;;;;;;;18.05;11.77;;;;;;;10.11;58.26;99395.19;5097438;28;20101;-72
2022/04/22 07:04:12;;;;;;;21.90;12.27;;;;;;;10.17;57.97;99399.25;5097513;28;20496;-73
2022/04/22 07:06:42;;;;;;;18.50;11.50;;;;;;;10.18;57.98;99399.13;5097247;28;20460;-73
2022/04/22 07:09:14;;;;;;;18.00;10.90;;;;;;;10.16;58.01;99398.41;5115832;28;20053;-73
2022/04/22 07:11:45;;;;;;;21.02;11.05;;;;;;;10.31;57.50;99391.97;5097619;28;20074;-73
2022/04/22 07:14:14;;;;;;;18.58;11.50;;;;;;;10.27;57.45;99385.16;5097645;28;20048;-72
2022/04/22 07:16:44;;;;;;;18.80;11.25;;;;;;;10.26;57.26;99399.47;5097045;28;20127;-73
2022/04/22 07:19:13;;;;;;;13.75;10.15;;;;;;;10.31;56.75;99396.44;5096958;28;20048;-73
2022/04/22 07:21:42;;;;;;;16.58;10.18;;;;;;;10.37;56.68;99392.50;5096597;28;20048;-73
2022/04/22 07:24:11;;;;;;;14.18;9.77;;;;;;;10.43;56.68;99405.41;5115139;28;20167;-73
2022/04/22 07:26:42;;;;;;;14.82;10.05;;;;;;;10.40;56.95;99408.25;5096700;28;20047;-73
2022/04/22 07:29:14;;;;;;;17.52;10.65;;;;;;;10.39;56.56;99411.91;5115114;28;20036;-73
2022/04/22 07:31:43;;;;;;;17.05;10.35;;;;;;;10.52;56.39;99410.06;5115012;28;20446;-73
2022/04/22 07:34:12;;;;;;;15.48;10.57;;;;;;;10.40;57.02;99408.25;5114823;28;20036;-73
2022/04/22 07:36:41;;;;;;;17.20;9.93;;;;;;;10.56;56.71;99403.53;5114792;28;20044;-72
2022/04/22 07:39:11;;;;;;;14.48;9.25;;;;;;;10.60;56.42;99399.66;5096695;28;20052;-72
2022/04/22 07:41:40;;;;;;;14.55;9.55;;;;;;;10.66;56.97;99399.22;5114647;28;20047;-73
2022/04/22 07:46:59;;;;;;;16.60;9.57;;;;;;;10.67;59.16;99405.41;5096396;28;20548;-73
2022/04/22 07:49:29;;;;;;;15.07;8.73;;;;;;;10.65;58.47;99394.00;5113626;28;20040;-72
2022/04/22 07:51:58;;;;;;;14.30;9.45;;;;;;;10.67;59.73;99403.56;5114596;28;20074;-72
2022/04/22 07:54:27;;;;;;;14.60;9.98;;;;;;;10.69;61.00;99396.31;5096735;28;20056;-72
2022/04/22 07:56:56;;;;;;;15.18;10.15;;;;;;;10.55;63.13;99388.50;5096187;28;20047;-72
2022/04/22 07:59:26;;;;;;;18.30;10.18;;;;;;;10.57;63.60;99399.88;5114609;28;20530;-72
2022/04/22 08:01:55;;;;;;;19.75;10.30;;;;;;;10.39;64.47;99390.56;5114228;28;20051;-72
2022/04/22 08:04:24;;;;;;;18.00;11.48;;;;;;;10.13;67.85;99393.25;5096424;28;20101;-71
2022/04/22 08:06:53;;;;;;;15.30;11.38;;;;;;;10.14;68.51;99388.81;5114509;28;20040;-73
2022/04/22 08:09:41;;;;;;;18.33;12.10;;;;;;;10.08;71.02;99389.25;5113870;28;20493;-73
2022/04/22 08:12:09;;;;;;;19.42;12.57;;;;;;;9.92;72.05;99394.81;5096452;28;20048;-72
2022/04/22 08:14:38;;;;;;;16.60;11.30;;;;;;;9.88;70.75;99382.69;5114338;28;20450;-73
2022/04/22 08:17:06;;;;;;;16.92;11.23;;;;;;;9.80;72.44;99380.56;5096253;28;20050;-71
2022/04/22 08:19:36;;;;;;;18.80;12.20;;;;;;;9.77;72.27;99375.44;5096046;28;20055;-72
2022/04/22 08:22:05;;;;;;;15.98;12.57;;;;;;;9.79;73.02;99373.53;5096256;28;20381;-73
2022/04/22 08:24:33;;;;;;;18.38;12.30;;;;;;;9.93;74.27;99373.38;5096000;28;20400;-72
2022/04/22 08:27:03;;;;;;;16.60;12.63;;;;;;;10.02;74.36;99369.22;5096284;28;20044;-73
2022/04/22 08:29:31;;;;;;;19.30;13.25;;;;;;;10.11;75.39;99371.22;5096475;28;20040;-73
2022/04/22 08:31:59;;;;;;;18.85;12.85;;;;;;;10.15;77.10;99367.38;5114213;28;20393;-73
2022/04/22 08:34:28;;;;;;;19.95;13.20;;;;;;;10.02;77.95;99374.53;5114107;28;20067;-73
2022/04/22 08:36:58;;;;;;;19.52;13.25;;;;;;;9.82;77.54;99367.13;5095546;28;20047;-72
2022/04/22 08:39:27;;;;;;;21.75;14.45;;;;;;;9.63;84.63;99368.41;5095821;28;20127;-73
2022/04/22 08:41:57;;;;;;;24.38;14.90;;;;;;;9.81;88.22;99370.75;5113877;28;20047;-73
2022/04/22 08:44:46;;;;;;;23.38;15.18;;;;;;;9.73;84.23;99352.63;5095891;28;20054;-73
2022/04/22 08:50:02;;;;;;;20.85;14.63;;;;;;;9.64;93.79;99348.81;5095817;28;20130;-73
2022/04/22 08:52:34;;;;;;;23.70;16.30;;;;;;;9.66;99.94;99346.91;5113777;28;20484;-72
2022/04/22 08:55:06;;;;;;;21.45;15.55;;;;;;;9.89;100.00;99357.75;5095538;28;20557;-73
2022/04/22 08:57:34;;;;;;;20.17;15.27;;;;;;;9.94;97.94;99361.78;5095398;28;20054;-73
2022/04/22 09:00:07;;;;;;;20.77;14.23;;;;;;;10.08;96.12;99359.94;5094741;28;20059;-73
2022/04/22 09:02:35;;;;;;;24.15;16.30;;;;;;;9.91;100.00;99353.16;5095678;28;20047;-72
2022/04/22 09:05:06;;;;;;;23.73;15.90;;;;;;;9.95;100.00;99355.50;5095471;28;20047;-72
2022/04/22 09:07:36;;;;;;;21.77;16.05;;;;;;;9.90;100.00;99354.09;5095381;28;20409;-73
2022/04/22 09:10:04;;;;;;;20.48;15.52;;;;;;;9.89;100.00;99342.59;5078239;28;20047;-73
2022/04/22 09:12:34;;;;;;;20.80;16.08;;;;;;;9.93;100.00;99345.88;5114005;28;20547;-72
2022/04/22 09:15:03;;;;;;;21.17;15.00;;;;;;;9.82;100.00;99343.16;5113349;28;20043;-72
2022/04/22 09:17:38;;;;;;;22.25;15.90;;;;;;;9.70;100.00;99332.41;5095536;28;20134;-72
2022/04/22 09:20:07;;;;;;;22.65;15.27;;;;;;;9.63;100.00;99319.63;5113764;28;20047;-73
2022/04/22 09:22:39;;;;;;;22.95;16.60;;;;;;;9.37;100.00;99318.84;5095304;28;20054;-72
2022/04/22 09:25:08;;;;;;;21.80;16.85;;;;;;;9.21;100.00;99323.50;5113782;28;20060;-72
2022/04/22 09:27:38;;;;;;;22.48;16.77;;;;;;;9.12;100.00;99315.19;5113772;28;20097;-72
2022/04/22 09:30:09;;;;;;;23.98;17.00;;;;;;;9.12;100.00;99303.72;5095758;28;20044;-72
2022/04/22 09:32:39;;;;;;;25.98;17.58;;;;;;;9.01;100.00;99295.63;5113580;28;20039;-72
2022/04/22 09:35:09;;;;;;;27.20;17.92;;;;;;;9.23;100.00;99294.97;5095015;28;20135;-72
2022/04/22 09:43:33;;;;;;;28.35;19.08;;;;;;;9.33;100.00;99278.25;5079402;28;20052;-72
2022/04/22 09:46:02;;;;;;;28.58;18.98;;;;;;;9.53;100.00;99282.16;5095084;28;20070;-72
2022/04/22 09:48:42;;;;;;;32.13;20.25;;;;;;;9.68;100.00;99283.75;5095048;28;20047;-72
2022/04/22 09:51:22;;;;;;;26.70;18.83;;;;;;;9.70;100.00;99289.81;5113149;28;20545;-72
2022/04/22 09:54:01;;;;;;;26.98;19.65;;;;;;;9.74;100.00;99291.28;5113077;28;20039;-72
2022/04/22 09:56:31;;;;;;;28.55;19.52;;;;;;;10.03;100.00;99290.97;5095041;28;20104;-72
2022/04/22 09:58:59;;;;;;;27.73;18.70;;;;;;;10.13;100.00;99286.69;5113048;28;20492;-72
2022/04/22 10:01:30;;;;;;;23.98;17.90;;;;;;;10.25;100.00;99288.50;5094994;28;20055;-72
2022/04/22 10:04:19;;;;;;;29.35;17.30;;;;;;;10.29;100.00;99300.63;5113106;28;20032;-73
2022/04/22 10:06:48;;;;;;;23.13;16.63;;;;;;;10.39;100.00;99302.59;5094801;28;20044;-73
2022/04/22 10:09:18;;;;;;;27.23;19.27;;;;;;;10.37;100.00;99305.38;5094565;28;20073;-73
2022/04/22 10:11:47;;;;;;;21.48;15.82;;;;;;;10.41;100.00;99306.00;5095783;28;20408;-73
2022/04/22 10:14:21;;;;;;;24.88;16.55;;;;;;;10.51;100.00;99304.34;5098371;28;20062;-73
2022/04/22 10:16:52;;;;;;;20.35;15.05;;;;;;;10.36;100.00;99292.16;5116332;28;20047;-73
2022/04/22 10:19:21;;;;;;;22.42;14.45;;;;;;;10.40;100.00;99282.97;5098230;28;20048;-73
2022/04/22 10:21:50;;;;;;;22.95;15.07;;;;;;;10.18;100.00;99287.19;5098116;28;20075;-72
2022/04/22 10:24:22;;;;;;;20.90;15.13;;;;;;;10.10;100.00;99276.25;5098054;28;20054;-73
2022/04/22 10:26:51;;;;;;;23.60;16.50;;;;;;;9.92;100.00;99265.13;5116409;28;20044;-72
2022/04/22 10:29:20;;;;;;;24.38;16.33;;;;;;;10.03;100.00;99261.66;5116241;28;20047;-72
2022/04/22 10:31:49;;;;;;;21.65;16.05;;;;;;;9.92;100.00;99262.47;5116227;28;20048;-72
2022/04/22 10:34:17;;;;;;;22.92;16.27;;;;;;;9.90;100.00;99256.41;5098552;28;20047;-73
2022/04/22 10:36:46;;;;;;;25.15;17.00;;;;;;;9.96;100.00;99252.44;5116011;28;20067;-80
2022/04/22 10:39:34;;;;;;;24.38;17.25;;;;;;;10.04;100.00;99256.25;5098009;28;20050;-71
2022/04/22 10:42:14;;;;;;;22.70;15.80;;;;;;;10.20;100.00;99260.44;5115825;28;20036;-73
2022/04/22 10:47:47;;;;;;;22.88;16.10;;;;;;;10.19;100.00;99270.25;5098007;28;20058;-72
2022/04/22 10:50:32;;;;;;;21.38;14.95;;;;;;;10.24;100.00;99257.47;5115899;28;20043;-73
2022/04/22 10:53:04;;;;;;;20.52;16.02;;;;;;;10.22;100.00;99248.72;5097616;28;20059;-72
2022/04/22 10:55:36;;;;;;;21.33;15.88;;;;;;;10.40;100.00;99234.97;5116459;28;20040;-73
2022/04/22 10:58:25;;;;;;;23.45;16.02;;;;;;;10.62;100.00;99228.91;5116202;28;20043;-73
2022/04/22 11:00:57;;;;;;;19.55;15.68;;;;;;;10.73;100.00;99216.44;5097729;28;20047;-73
2022/04/22 11:03:31;;;;;;;23.65;14.82;;;;;;;10.95;100.00;99209.41;5097776;28;20075;-73
2022/04/22 11:06:01;;;;;;;19.52;14.60;;;;;;;10.87;100.00;99234.88;5097554;28;20101;-73
2022/04/22 11:08:32;;;;;;;19.30;13.23;;;;;;;10.82;100.00;99217.53;5115661;28;20428;-72
2022/04/22 11:11:18;;;;;;;19.83;14.23;;;;;;;10.97;100.00;99216.31;5097111;28;20105;-73
2022/04/22 11:13:50;;;;;;;18.17;13.18;;;;;;;10.88;100.00;99225.91;5097747;28;20052;-71
2022/04/22 11:16:29;;;;;;;19.60;14.18;;;;;;;10.96;100.00;99211.13;5116001;28;20040;-73
2022/04/22 11:19:26;;;;;;;17.52;13.32;;;;;;;11.23;100.00;99219.63;5097409;28;20048;-72
2022/04/22 11:21:57;;;;;;;15.65;11.60;;;;;;;11.38;100.00;99223.72;5115308;28;20054;-73
2022/04/22 11:24:27;;;;;;;18.02;13.15;;;;;;;11.47;100.00;99200.78;5097136;28;20569;-73
2022/04/22 11:27:10;;;;;;;16.95;11.63;;;;;;;11.71;100.00;99208.66;5115735;28;20040;-73
2022/04/22 11:29:39;;;;;;;18.10;12.73;;;;;;;12.00;98.88;99206.31;5115793;28;20101;-73
2022/04/22 11:32:15;;;;;;;13.98;10.90;;;;;;;12.01;94.42;99203.50;5097265;28;20062;-73
2022/04/22 11:34:55;;;;;;;14.48;10.77;;;;;;;12.18;91.43;99186.06;5097119;28;20051;-72
2022/04/22 11:37:24;;;;;;;15.18;10.43;;;;;;;12.47;90.98;99186.28;5097367;28;20048;-73
2022/04/22 11:39:54;;;;;;;13.80;10.43;;;;;;;12.45;89.54;99190.91;5097014;28;20085;-72
2022/04/22 11:42:24;;;;;;;13.27;10.10;;;;;;;12.61;87.38;99182.41;5096461;28;20082;-73
2022/04/22 11:45:04;;;;;;;13.05;10.52;;;;;;;12.71;85.23;99172.63;5096979;28;20055;-73
2022/04/22 11:47:33;;;;;;;15.25;9.93;;;;;;;12.81;87.16;99173.53;5096850;28;20051;-72
2022/04/22 11:50:01;;;;;;;13.80;9.95;;;;;;;12.80;83.63;99181.69;5096368;28;20059;-72
2022/04/22 11:52:30;;;;;;;14.02;10.25;;;;;;;12.91;83.39;99178.94;5096450;28;20093;-72
2022/04/22 11:55:06;;;;;;;17.45;10.57;;;;;;;12.83;80.39;99176.91;5096598;28;20079;-72
2022/04/22 11:57:37;;;;;;;14.98;9.77;;;;;;;12.73;81.28;99176.00;5096775;28;20145;-73
2022/04/22 12:05:43;;;;;;;13.15;9.63;;;;;;;12.74;76.85;99166.16;5114693;28;20062;-73
2022/04/22 12:08:14;;;;;;;16.15;10.65;;;;;;;12.80;76.25;99166.47;5095974;28;20052;-73
2022/04/22 12:10:46;;;;;;;16.10;10.27;;;;;;;12.87;75.64;99150.75;5096274;28;20067;-73
2022/04/22 12:13:16;;;;;;;13.77;9.82;;;;;;;13.07;74.93;99147.19;5113958;28;20569;-72
2022/04/22 12:15:48;;;;;;;14.75;10.57;;;;;;;12.97;74.94;99157.00;5114556;28;20044;-73
2022/04/22 12:18:32;;;;;;;12.52;8.80;;;;;;;13.14;73.54;99148.34;5114419;28;20089;-72
2022/04/22 12:21:01;;;;;;;15.73;9.88;;;;;;;13.25;74.14;99139.38;5096005;28;20047;-73
2022/04/22 12:23:37;;;;;;;14.75;10.23;;;;;;;13.20;73.61;99138.09;5113987;28;20545;-73
2022/04/22 12:26:06;;;;;;;12.88;8.43;;;;;;;13.31;71.11;99133.47;5095409;28;20040;-72
2022/04/22 12:28:36;;;;;;;11.38;8.80;;;;;;;13.37;71.97;99127.56;5095831;28;20400;-73
2022/04/22 12:31:05;;;;;;;12.38;8.32;;;;;;;13.45;70.91;99118.84;5113884;28;20092;-73
2022/04/22 12:33:34;;;;;;;13.20;8.38;;;;;;;13.42;69.77;99124.50;5095794;28;20054;-73
2022/04/22 12:36:10;;;;;;;12.75;8.82;;;;;;;13.42;69.62;99124.50;5095317;28;20059;-73